| time (UTC) | temp F | wind direction | speed MPH | gust MPH | rain 1hr in | rain 24hr in | rain mn in | humidity % | barometer mb |
| 20260831091552 | 64 | 11 | 0.0 | 0.0 | 0.02 | 0.05 | 0.04 | 100 | 1011.9 |
| 20260831090050 | 64 | 11 | 0.0 | 0.0 | 0.03 | 0.05 | 0.04 | 100 | 1012.1 |
| 20260831084550 | 64 | 11 | 0.0 | 0.0 | 0.04 | 0.05 | 0.04 | 100 | 1012.4 |
| 20260831083045 | 64 | 11 | 0.0 | 0.0 | 0.02 | 0.03 | 0.02 | 100 | 1012.5 |
| 20260831081546 | 64 | 11 | 0.0 | 0.0 | 0.02 | 0.03 | 0.02 | 100 | 1012.4 |
| 20260831080044 | 64 | 11 | 0.0 | 0.0 | 0.01 | 0.02 | 0.01 | 100 | 1012.4 |
| 20260831074543 | 64 | 11 | 0.0 | 0.0 | 0.00 | 0.01 | 0.00 | 100 | 1012.5 |
| 20260831073042 | 64 | 11 | 0.0 | 0.0 | 0.00 | 0.01 | 0.00 | 100 | 1012.7 |
| 20260831071539 | 64 | 11 | 0.0 | 0.0 | 0.00 | 0.01 | 0.00 | 100 | 1012.9 |
| 20260831070041 | 64 | 11 | 0.0 | 0.0 | 0.00 | 0.01 | 0.00 | 100 | 1013.1 |
| 20260831064538 | 64 | 10 | 0.0 | 0.0 | 0.00 | 0.01 | 0.00 | 100 | 1013.2 |
| 20260831063037 | 64 | 11 | 0.0 | 0.0 | 0.00 | 0.01 | 0.00 | 100 | 1013.1 |
| 20260831061535 | 64 | 11 | 0.0 | 0.0 | 0.00 | 0.01 | 0.00 | 100 | 1013.7 |
| 20260831060033 | 64 | 11 | 0.0 | 0.0 | 0.00 | 0.01 | 0.00 | 100 | 1013.6 |
| 20260831054532 | 64 | 11 | 0.0 | 0.0 | 0.00 | 0.01 | 0.00 | 100 | 1014.0 |
| 20260831053032 | 64 | 11 | 0.0 | 0.0 | 0.00 | 0.01 | 0.00 | 100 | 1014.4 |
| 20260831051531 | 64 | 10 | 0.0 | 0.0 | 0.00 | 0.01 | 0.00 | 100 | 1014.5 |
| 20260831050030 | 64 | 11 | 0.0 | 0.0 | 0.00 | 0.01 | 0.00 | 100 | 1014.5 |
| 20260831044529 | 64 | 337 | 0.0 | 0.0 | 0.00 | 0.01 | 0.00 | 100 | 1014.3 |
| 20260831043027 | 64 | 355 | 0.0 | 2.0 | 0.00 | 0.01 | 0.00 | 100 | 1014.2 |
| 20260831041525 | 64 | 355 | 0.0 | 0.0 | 0.00 | 0.01 | 0.00 | 100 | 1013.9 |
| 20260831040023 | 63 | 355 | 0.0 | 1.0 | 0.00 | 0.01 | 0.00 | 100 | 1013.9 |
| 20260831034523 | 63 | 355 | 0.0 | 0.0 | 0.00 | 0.01 | 0.01 | 99 | 1013.7 |
| 20260831033032 | 64 | 355 | 0.0 | 0.0 | 0.00 | 0.01 | 0.01 | 99 | 1013.9 |
| 20260831031522 | 64 | 355 | 0.0 | 0.0 | 0.00 | 0.01 | 0.01 | 99 | 1014.0 |
| 20260831030025 | 64 | 355 | 0.0 | 0.0 | 0.00 | 0.01 | 0.01 | 99 | 1014.1 |
| 20260831024523 | 64 | 355 | 0.0 | 0.0 | 0.00 | 0.01 | 0.01 | 99 | 1014.2 |
| 20260831023024 | 64 | 355 | 0.0 | 2.0 | 0.00 | 0.01 | 0.01 | 99 | 1014.2 |
| 20260831021520 | 65 | 355 | 0.0 | 1.0 | 0.00 | 0.01 | 0.01 | 99 | 1014.1 |
| 20260831020019 | 65 | 346 | 1.0 | 3.0 | 0.00 | 0.01 | 0.01 | 99 | 1014.1 |
| 20260831014519 | 65 | 5 | 0.0 | 0.0 | 0.00 | 0.01 | 0.01 | 99 | 1014.1 |
| 20260831013019 | 65 | 5 | 0.0 | 0.0 | 0.00 | 0.01 | 0.01 | 99 | 1014.0 |
| 20260831011518 | 65 | 5 | 0.0 | 0.0 | 0.00 | 0.01 | 0.01 | 99 | 1014.0 |
| 20260831010018 | 65 | 5 | 0.0 | 1.0 | 0.00 | 0.01 | 0.01 | 99 | 1013.9 |
| 20260831004517 | 65 | 5 | 0.0 | 0.0 | 0.00 | 0.01 | 0.01 | 99 | 1014.0 |
| 20260831003017 | 65 | 5 | 0.0 | 1.0 | 0.00 | 0.01 | 0.01 | 99 | 1014.0 |
| 20260831001517 | 66 | 5 | 0.0 | 0.0 | 0.00 | 0.01 | 0.01 | 99 | 1014.0 |
| 20260831000016 | 65 | 5 | 0.0 | 2.0 | 0.00 | 0.01 | 0.01 | 99 | 1014.1 |
| 20260830234516 | 65 | 5 | 1.0 | 2.0 | 0.00 | 0.01 | 0.01 | 99 | 1013.8 |
| 20260830233015 | 65 | 360 | 2.0 | 5.0 | 0.00 | 0.01 | 0.01 | 99 | 1014.1 |
| 20260830231515 | 65 | 360 | 2.0 | 6.0 | 0.00 | 0.01 | 0.01 | 99 | 1014.1 |
| 20260830230016 | 65 | 344 | 2.0 | 5.0 | 0.00 | 0.01 | 0.01 | 99 | 1014.0 |
| 20260830224515 | 65 | 349 | 2.0 | 6.0 | 0.00 | 0.01 | 0.01 | 99 | 1013.9 |
| 20260830223014 | 66 | 344 | 2.0 | 4.0 | 0.00 | 0.01 | 0.01 | 99 | 1014.1 |
| 20260830221513 | 66 | 355 | 0.0 | 1.0 | 0.00 | 0.01 | 0.01 | 99 | 1014.0 |
| 20260830220018 | 65 | 355 | 1.0 | 3.0 | 0.00 | 0.01 | 0.01 | 99 | 1013.6 |
| 20260830214512 | 65 | 345 | 1.0 | 3.0 | 0.00 | 0.01 | 0.01 | 99 | 1013.9 |
| 20260830213012 | 66 | 347 | 2.0 | 4.0 | 0.01 | 0.01 | 0.01 | 99 | 1013.9 |
| 20260830211513 | 66 | 346 | 2.0 | 4.0 | 0.01 | 0.01 | 0.01 | 98 | 1014.0 |
| 20260830210010 | 66 | 342 | 1.0 | 3.0 | 0.01 | 0.01 | 0.01 | 98 | 1014.1 |
| 20260830204508 | 66 | 355 | 1.0 | 4.0 | 0.01 | 0.01 | 0.01 | 98 | 1014.0 |
| 20260830203017 | 66 | 350 | 3.0 | 8.0 | 0.00 | 0.00 | 0.00 | 97 | 1013.9 |
| 20260830201507 | 66 | 349 | 2.0 | 5.0 | 0.00 | 0.00 | 0.00 | 97 | 1013.9 |
| 20260830200015 | 66 | 360 | 3.0 | 6.0 | 0.00 | 0.00 | 0.00 | 96 | 1013.9 |
| 20260830194505 | 66 | 345 | 2.0 | 6.0 | 0.00 | 0.07 | 0.00 | 96 | 1014.3 |
| 20260830193008 | 67 | 5 | 2.0 | 8.0 | 0.00 | 0.07 | 0.00 | 95 | 1014.4 |
| 20260830191509 | 67 | 15 | 2.0 | 5.0 | 0.00 | 0.07 | 0.00 | 95 | 1014.3 |
| 20260830190004 | 68 | 348 | 2.0 | 5.0 | 0.00 | 0.07 | 0.00 | 94 | 1014.0 |
| 20260830184508 | 67 | 19 | 2.0 | 5.0 | 0.00 | 0.08 | 0.00 | 94 | 1014.3 |
| 20260830183002 | 68 | 12 | 2.0 | 5.0 | 0.00 | 0.08 | 0.00 | 93 | 1014.5 |
| 20260830181503 | 68 | 5 | 2.0 | 4.0 | 0.00 | 0.08 | 0.00 | 93 | 1014.5 |
| 20260830180002 | 68 | 5 | 1.0 | 3.0 | 0.00 | 0.08 | 0.00 | 93 | 1014.2 |
| 20260830174616 | 69 | 22 | 1.0 | 4.0 | 0.00 | 0.10 | 0.00 | 93 | 1014.2 |
| 20260830174502 | 69 | 24 | 1.0 | 4.0 | 0.00 | 0.10 | 0.00 | 93 | 1014.1 |
| 20260830173115 | 69 | 5 | 1.0 | 5.0 | 0.00 | 0.10 | 0.00 | 93 | 1014.0 |
| 20260830171603 | 69 | 25 | 1.0 | 3.0 | 0.00 | 0.10 | 0.00 | 93 | 1014.1 |
| 20260830171502 | 69 | 26 | 1.0 | 4.0 | 0.00 | 0.10 | 0.00 | 93 | 1014.1 |
| 20260830170059 | 68 | 349 | 1.0 | 5.0 | 0.00 | 0.10 | 0.00 | 94 | 1014.2 |
| 20260830164558 | 68 | 5 | 3.0 | 5.0 | 0.00 | 0.10 | 0.00 | 94 | 1014.3 |
| 20260830163058 | 69 | 25 | 2.0 | 6.0 | 0.00 | 0.10 | 0.00 | 92 | 1014.5 |
| 20260830161556 | 70 | 5 | 2.0 | 5.0 | 0.00 | 0.10 | 0.00 | 92 | 1014.6 |
| 20260830160053 | 69 | 355 | 2.0 | 4.0 | 0.00 | 0.10 | 0.00 | 93 | 1014.5 |
| 20260830154552 | 69 | 344 | 2.0 | 4.0 | 0.00 | 0.10 | 0.00 | 93 | 1014.3 |
| 20260830153051 | 68 | 355 | 1.0 | 4.0 | 0.00 | 0.10 | 0.00 | 94 | 1014.2 |
| 20260830151549 | 68 | 337 | 1.0 | 6.0 | 0.00 | 0.10 | 0.00 | 94 | 1014.2 |
| 20260830150054 | 68 | 350 | 3.0 | 6.0 | 0.00 | 0.10 | 0.00 | 93 | 1014.3 |
| 20260830144556 | 68 | 5 | 0.0 | 2.0 | 0.00 | 0.10 | 0.00 | 93 | 1014.0 |
| 20260830143047 | 68 | 5 | 0.0 | 0.0 | 0.00 | 0.10 | 0.00 | 94 | 1014.0 |
| 20260830141544 | 67 | 355 | 0.0 | 0.0 | 0.00 | 0.10 | 0.00 | 96 | 1014.2 |
| 20260830140043 | 66 | 9 | 0.0 | 0.0 | 0.00 | 0.10 | 0.00 | 98 | 1014.2 |
| 20260830134544 | 65 | 134 | 0.0 | 0.0 | 0.00 | 0.10 | 0.00 | 98 | 1014.3 |
| 20260830133037 | 65 | 146 | 0.0 | 4.0 | 0.00 | 0.10 | 0.00 | 99 | 1014.2 |
| 20260830131537 | 64 | 344 | 0.0 | 3.0 | 0.00 | 0.10 | 0.00 | 99 | 1014.1 |
| 20260830130035 | 63 | 355 | 0.0 | 0.0 | 0.00 | 0.10 | 0.00 | 100 | 1014.4 |
| 20260830124540 | 63 | 355 | 0.0 | 0.0 | 0.00 | 0.10 | 0.00 | 100 | 1014.5 |
| 20260830123034 | 62 | 355 | 0.0 | 0.0 | 0.00 | 0.10 | 0.00 | 99 | 1014.6 |
| 20260830121534 | 61 | 355 | 0.0 | 0.0 | 0.00 | 0.10 | 0.00 | 99 | 1014.5 |
| 20260830120037 | 61 | 355 | 0.0 | 0.0 | 0.00 | 0.10 | 0.00 | 99 | 1014.2 |
| 20260830114532 | 60 | 355 | 0.0 | 0.0 | 0.00 | 0.10 | 0.00 | 98 | 1014.0 |
| 20260830113031 | 60 | 355 | 0.0 | 0.0 | 0.00 | 0.10 | 0.00 | 98 | 1013.9 |
| 20260830111531 | 61 | 355 | 0.0 | 0.0 | 0.00 | 0.10 | 0.00 | 98 | 1013.8 |
| 20260830110033 | 61 | 355 | 0.0 | 0.0 | 0.00 | 0.10 | 0.00 | 98 | 1013.7 |
| 20260830104528 | 61 | 355 | 0.0 | 0.0 | 0.00 | 0.10 | 0.00 | 98 | 1013.7 |
| 20260830103034 | 62 | 355 | 0.0 | 0.0 | 0.00 | 0.10 | 0.00 | 98 | 1013.4 |
| 20260830101526 | 62 | 355 | 0.0 | 0.0 | 0.00 | 0.10 | 0.00 | 98 | 1013.7 |
| 20260830100033 | 63 | 355 | 0.0 | 0.0 | 0.00 | 0.10 | 0.00 | 98 | 1013.7 |
| 20260830094524 | 63 | 355 | 0.0 | 0.0 | 0.00 | 0.10 | 0.00 | 98 | 1013.7 |
| 20260830093047 | 63 | 355 | 0.0 | 0.0 | 0.00 | 0.10 | 0.00 | 98 | 1013.9 |